sensor_id;sensor_type;location;lat;lon;timestamp;P1;durP1;ratioP1;P2;durP2;ratioP2
59458;SDS011;45269;43.568;22.244;2024-01-11T00:00:26;88.10;;;31.55;;
59458;SDS011;45269;43.568;22.244;2024-01-11T00:02:51;195.68;;;134.32;;
59458;SDS011;45269;43.568;22.244;2024-01-11T00:05:17;67.68;;;26.58;;
59458;SDS011;45269;43.568;22.244;2024-01-11T00:07:42;308.55;;;183.13;;
59458;SDS011;45269;43.568;22.244;2024-01-11T00:10:08;46.25;;;20.70;;
59458;SDS011;45269;43.568;22.244;2024-01-11T00:12:33;139.20;;;92.68;;
59458;SDS011;45269;43.568;22.244;2024-01-11T00:14:59;28.63;;;11.90;;
59458;SDS011;45269;43.568;22.244;2024-01-11T00:17:24;139.23;;;90.22;;
59458;SDS011;45269;43.568;22.244;2024-01-11T00:19:50;141.18;;;94.80;;
59458;SDS011;45269;43.568;22.244;2024-01-11T00:22:15;300.52;;;193.50;;
59458;SDS011;45269;43.568;22.244;2024-01-11T00:24:41;75.63;;;30.52;;
59458;SDS011;45269;43.568;22.244;2024-01-11T00:27:06;466.10;;;298.90;;
59458;SDS011;45269;43.568;22.244;2024-01-11T00:29:32;365.48;;;236.32;;
59458;SDS011;45269;43.568;22.244;2024-01-11T00:31:57;445.05;;;279.70;;
59458;SDS011;45269;43.568;22.244;2024-01-11T00:34:23;482.98;;;316.20;;
59458;SDS011;45269;43.568;22.244;2024-01-11T00:36:48;554.38;;;348.60;;
59458;SDS011;45269;43.568;22.244;2024-01-11T00:39:14;212.60;;;71.38;;
59458;SDS011;45269;43.568;22.244;2024-01-11T00:41:39;424.17;;;254.32;;
59458;SDS011;45269;43.568;22.244;2024-01-11T00:44:05;78.63;;;26.05;;
59458;SDS011;45269;43.568;22.244;2024-01-11T00:46:30;436.02;;;265.25;;
59458;SDS011;45269;43.568;22.244;2024-01-11T00:48:56;322.65;;;200.23;;
59458;SDS011;45269;43.568;22.244;2024-01-11T00:51:21;379.92;;;237.20;;
59458;SDS011;45269;43.568;22.244;2024-01-11T00:53:48;349.63;;;223.75;;
59458;SDS011;45269;43.568;22.244;2024-01-11T00:56:17;152.02;;;45.35;;
59458;SDS011;45269;43.568;22.244;2024-01-11T00:58:42;342.55;;;231.00;;
59458;SDS011;45269;43.568;22.244;2024-01-11T01:01:11;299.35;;;195.13;;
59458;SDS011;45269;43.568;22.244;2024-01-11T01:03:36;118.63;;;43.70;;
59458;SDS011;45269;43.568;22.244;2024-01-11T01:06:02;198.23;;;132.82;;
59458;SDS011;45269;43.568;22.244;2024-01-11T01:08:27;202.18;;;141.32;;
59458;SDS011;45269;43.568;22.244;2024-01-11T01:10:53;175.60;;;118.68;;
59458;SDS011;45269;43.568;22.244;2024-01-11T01:13:18;163.82;;;116.57;;
59458;SDS011;45269;43.568;22.244;2024-01-11T01:15:43;195.25;;;130.60;;
59458;SDS011;45269;43.568;22.244;2024-01-11T01:18:09;264.15;;;170.90;;
59458;SDS011;45269;43.568;22.244;2024-01-11T01:20:34;278.20;;;186.88;;
59458;SDS011;45269;43.568;22.244;2024-01-11T01:23:00;233.88;;;156.27;;
59458;SDS011;45269;43.568;22.244;2024-01-11T01:25:25;243.80;;;180.15;;
59458;SDS011;45269;43.568;22.244;2024-01-11T01:27:50;196.40;;;134.98;;
59458;SDS011;45269;43.568;22.244;2024-01-11T01:30:16;217.07;;;148.65;;
59458;SDS011;45269;43.568;22.244;2024-01-11T01:32:41;200.48;;;143.48;;
59458;SDS011;45269;43.568;22.244;2024-01-11T01:35:06;160.35;;;116.80;;
59458;SDS011;45269;43.568;22.244;2024-01-11T01:37:32;168.63;;;120.45;;
59458;SDS011;45269;43.568;22.244;2024-01-11T01:39:58;181.45;;;120.93;;
59458;SDS011;45269;43.568;22.244;2024-01-11T01:42:23;191.02;;;130.35;;
59458;SDS011;45269;43.568;22.244;2024-01-11T01:44:48;107.57;;;42.38;;
59458;SDS011;45269;43.568;22.244;2024-01-11T01:47:14;167.85;;;114.18;;
59458;SDS011;45269;43.568;22.244;2024-01-11T01:49:39;141.90;;;103.50;;
59458;SDS011;45269;43.568;22.244;2024-01-11T01:52:05;134.95;;;94.28;;
59458;SDS011;45269;43.568;22.244;2024-01-11T01:54:31;141.85;;;56.42;;
59458;SDS011;45269;43.568;22.244;2024-01-11T01:56:57;94.97;;;66.68;;
59458;SDS011;45269;43.568;22.244;2024-01-11T01:59:22;115.28;;;80.38;;
59458;SDS011;45269;43.568;22.244;2024-01-11T02:01:49;184.07;;;125.43;;
59458;SDS011;45269;43.568;22.244;2024-01-11T02:04:14;192.48;;;123.43;;
59458;SDS011;45269;43.568;22.244;2024-01-11T02:06:40;198.18;;;119.85;;
59458;SDS011;45269;43.568;22.244;2024-01-11T02:09:05;152.10;;;100.85;;
59458;SDS011;45269;43.568;22.244;2024-01-11T02:11:33;165.27;;;110.00;;
59458;SDS011;45269;43.568;22.244;2024-01-11T02:13:59;107.40;;;78.93;;
59458;SDS011;45269;43.568;22.244;2024-01-11T02:16:24;128.52;;;87.72;;
59458;SDS011;45269;43.568;22.244;2024-01-11T02:18:49;165.38;;;116.78;;
59458;SDS011;45269;43.568;22.244;2024-01-11T02:21:15;139.50;;;95.80;;
59458;SDS011;45269;43.568;22.244;2024-01-11T02:26:25;85.97;;;33.70;;
59458;SDS011;45269;43.568;22.244;2024-01-11T02:28:51;165.90;;;118.70;;
59458;SDS011;45269;43.568;22.244;2024-01-11T02:31:16;167.15;;;116.95;;
59458;SDS011;45269;43.568;22.244;2024-01-11T02:33:41;160.02;;;112.97;;
59458;SDS011;45269;43.568;22.244;2024-01-11T02:36:07;151.23;;;105.30;;
59458;SDS011;45269;43.568;22.244;2024-01-11T02:38:33;76.97;;;28.60;;
59458;SDS011;45269;43.568;22.244;2024-01-11T02:40:59;201.55;;;141.25;;
59458;SDS011;45269;43.568;22.244;2024-01-11T02:43:25;190.27;;;133.98;;
59458;SDS011;45269;43.568;22.244;2024-01-11T02:45:54;180.02;;;129.13;;
59458;SDS011;45269;43.568;22.244;2024-01-11T02:48:19;168.13;;;118.28;;
59458;SDS011;45269;43.568;22.244;2024-01-11T02:50:44;210.10;;;156.63;;
59458;SDS011;45269;43.568;22.244;2024-01-11T02:53:10;176.02;;;134.00;;
59458;SDS011;45269;43.568;22.244;2024-01-11T02:55:35;92.40;;;37.53;;
59458;SDS011;45269;43.568;22.244;2024-01-11T02:58:00;162.07;;;115.88;;
59458;SDS011;45269;43.568;22.244;2024-01-11T03:00:26;166.82;;;119.03;;
59458;SDS011;45269;43.568;22.244;2024-01-11T03:02:51;170.85;;;118.03;;
59458;SDS011;45269;43.568;22.244;2024-01-11T03:05:17;175.60;;;120.25;;
59458;SDS011;45269;43.568;22.244;2024-01-11T03:07:42;95.32;;;33.45;;
59458;SDS011;45269;43.568;22.244;2024-01-11T03:10:07;171.20;;;115.13;;
59458;SDS011;45269;43.568;22.244;2024-01-11T03:12:33;176.32;;;114.47;;
59458;SDS011;45269;43.568;22.244;2024-01-11T03:14:58;168.55;;;114.13;;
59458;SDS011;45269;43.568;22.244;2024-01-11T03:17:23;155.77;;;108.72;;
59458;SDS011;45269;43.568;22.244;2024-01-11T03:19:49;166.93;;;112.03;;
59458;SDS011;45269;43.568;22.244;2024-01-11T03:22:14;158.57;;;110.75;;
59458;SDS011;45269;43.568;22.244;2024-01-11T03:24:39;165.27;;;111.95;;
59458;SDS011;45269;43.568;22.244;2024-01-11T03:27:05;197.50;;;130.43;;
59458;SDS011;45269;43.568;22.244;2024-01-11T03:29:31;178.23;;;115.75;;
59458;SDS011;45269;43.568;22.244;2024-01-11T03:31:56;165.02;;;103.35;;
59458;SDS011;45269;43.568;22.244;2024-01-11T03:34:21;187.98;;;122.82;;
59458;SDS011;45269;43.568;22.244;2024-01-11T03:36:47;200.13;;;133.40;;
59458;SDS011;45269;43.568;22.244;2024-01-11T03:39:12;152.85;;;102.60;;
59458;SDS011;45269;43.568;22.244;2024-01-11T03:41:42;75.50;;;28.13;;
59458;SDS011;45269;43.568;22.244;2024-01-11T03:44:08;162.75;;;107.95;;
59458;SDS011;45269;43.568;22.244;2024-01-11T03:46:33;106.70;;;70.47;;
59458;SDS011;45269;43.568;22.244;2024-01-11T03:48:59;93.35;;;62.85;;
59458;SDS011;45269;43.568;22.244;2024-01-11T03:51:25;109.03;;;74.65;;
59458;SDS011;45269;43.568;22.244;2024-01-11T03:53:50;158.75;;;111.40;;
59458;SDS011;45269;43.568;22.244;2024-01-11T03:56:15;131.55;;;90.60;;
59458;SDS011;45269;43.568;22.244;2024-01-11T03:58:41;125.60;;;86.50;;
59458;SDS011;45269;43.568;22.244;2024-01-11T04:01:09;113.72;;;81.65;;
59458;SDS011;45269;43.568;22.244;2024-01-11T04:03:35;147.27;;;105.53;;
59458;SDS011;45269;43.568;22.244;2024-01-11T04:06:00;111.32;;;83.57;;
59458;SDS011;45269;43.568;22.244;2024-01-11T04:08:26;96.90;;;71.60;;
59458;SDS011;45269;43.568;22.244;2024-01-11T04:10:51;38.90;;;14.82;;
59458;SDS011;45269;43.568;22.244;2024-01-11T04:13:16;85.70;;;64.28;;
59458;SDS011;45269;43.568;22.244;2024-01-11T04:15:42;65.65;;;24.15;;
59458;SDS011;45269;43.568;22.244;2024-01-11T04:18:07;120.63;;;84.43;;
59458;SDS011;45269;43.568;22.244;2024-01-11T04:20:32;103.85;;;70.78;;
59458;SDS011;45269;43.568;22.244;2024-01-11T04:22:58;93.32;;;65.88;;
59458;SDS011;45269;43.568;22.244;2024-01-11T04:25:23;100.45;;;70.40;;
59458;SDS011;45269;43.568;22.244;2024-01-11T04:27:49;61.22;;;44.65;;
59458;SDS011;45269;43.568;22.244;2024-01-11T04:30:14;44.38;;;35.00;;
59458;SDS011;45269;43.568;22.244;2024-01-11T04:32:39;80.60;;;58.55;;
59458;SDS011;45269;43.568;22.244;2024-01-11T04:35:05;20.55;;;9.50;;
59458;SDS011;45269;43.568;22.244;2024-01-11T04:37:30;103.55;;;70.45;;
59458;SDS011;45269;43.568;22.244;2024-01-11T04:39:55;100.47;;;67.40;;
59458;SDS011;45269;43.568;22.244;2024-01-11T04:42:25;95.65;;;72.18;;
59458;SDS011;45269;43.568;22.244;2024-01-11T04:44:50;108.72;;;74.40;;
59458;SDS011;45269;43.568;22.244;2024-01-11T04:47:15;111.60;;;75.45;;
59458;SDS011;45269;43.568;22.244;2024-01-11T04:49:41;129.82;;;85.47;;
59458;SDS011;45269;43.568;22.244;2024-01-11T04:52:06;100.20;;;74.95;;
59458;SDS011;45269;43.568;22.244;2024-01-11T04:54:31;118.63;;;87.78;;
59458;SDS011;45269;43.568;22.244;2024-01-11T04:56:57;104.95;;;78.22;;
59458;SDS011;45269;43.568;22.244;2024-01-11T04:59:22;111.65;;;84.25;;
59458;SDS011;45269;43.568;22.244;2024-01-11T05:01:48;121.78;;;86.65;;
59458;SDS011;45269;43.568;22.244;2024-01-11T05:04:13;125.85;;;91.90;;
59458;SDS011;45269;43.568;22.244;2024-01-11T05:06:38;107.32;;;82.78;;
59458;SDS011;45269;43.568;22.244;2024-01-11T05:09:04;95.68;;;69.95;;
59458;SDS011;45269;43.568;22.244;2024-01-11T05:11:29;91.78;;;61.40;;
59458;SDS011;45269;43.568;22.244;2024-01-11T05:13:55;70.10;;;53.92;;
59458;SDS011;45269;43.568;22.244;2024-01-11T05:16:21;82.18;;;64.15;;
59458;SDS011;45269;43.568;22.244;2024-01-11T05:18:47;881.40;;;599.35;;
59458;SDS011;45269;43.568;22.244;2024-01-11T05:21:13;157.63;;;103.72;;
59458;SDS011;45269;43.568;22.244;2024-01-11T05:23:39;287.75;;;204.45;;
59458;SDS011;45269;43.568;22.244;2024-01-11T05:26:05;140.30;;;100.32;;
59458;SDS011;45269;43.568;22.244;2024-01-11T05:28:30;166.77;;;119.32;;
59458;SDS011;45269;43.568;22.244;2024-01-11T05:30:56;165.13;;;119.20;;
59458;SDS011;45269;43.568;22.244;2024-01-11T05:33:21;184.77;;;68.50;;
59458;SDS011;45269;43.568;22.244;2024-01-11T05:35:46;181.07;;;136.65;;
59458;SDS011;45269;43.568;22.244;2024-01-11T05:38:12;229.38;;;182.40;;
59458;SDS011;45269;43.568;22.244;2024-01-11T05:40:37;223.82;;;179.10;;
59458;SDS011;45269;43.568;22.244;2024-01-11T05:43:02;357.58;;;282.10;;
59458;SDS011;45269;43.568;22.244;2024-01-11T05:45:28;283.27;;;215.63;;
59458;SDS011;45269;43.568;22.244;2024-01-11T05:47:54;284.55;;;218.73;;
59458;SDS011;45269;43.568;22.244;2024-01-11T05:50:19;402.10;;;313.02;;
59458;SDS011;45269;43.568;22.244;2024-01-11T05:52:44;200.52;;;153.73;;
59458;SDS011;45269;43.568;22.244;2024-01-11T05:55:10;237.23;;;174.98;;
59458;SDS011;45269;43.568;22.244;2024-01-11T05:57:35;78.10;;;62.42;;
59458;SDS011;45269;43.568;22.244;2024-01-11T06:00:01;115.03;;;91.82;;
59458;SDS011;45269;43.568;22.244;2024-01-11T06:02:26;253.77;;;183.55;;
59458;SDS011;45269;43.568;22.244;2024-01-11T06:04:52;269.13;;;197.18;;
59458;SDS011;45269;43.568;22.244;2024-01-11T06:07:17;250.38;;;181.10;;
59458;SDS011;45269;43.568;22.244;2024-01-11T06:09:43;194.35;;;143.90;;
59458;SDS011;45269;43.568;22.244;2024-01-11T06:12:08;122.15;;;95.97;;
59458;SDS011;45269;43.568;22.244;2024-01-11T06:14:34;119.13;;;91.57;;
59458;SDS011;45269;43.568;22.244;2024-01-11T06:16:59;68.47;;;53.40;;
59458;SDS011;45269;43.568;22.244;2024-01-11T06:19:24;87.07;;;64.43;;
59458;SDS011;45269;43.568;22.244;2024-01-11T06:21:50;75.82;;;57.08;;
59458;SDS011;45269;43.568;22.244;2024-01-11T06:24:15;68.70;;;52.22;;
59458;SDS011;45269;43.568;22.244;2024-01-11T06:26:40;125.45;;;93.75;;
59458;SDS011;45269;43.568;22.244;2024-01-11T06:29:06;78.93;;;60.10;;
59458;SDS011;45269;43.568;22.244;2024-01-11T06:31:31;101.32;;;79.90;;
59458;SDS011;45269;43.568;22.244;2024-01-11T06:33:57;93.90;;;69.97;;
59458;SDS011;45269;43.568;22.244;2024-01-11T06:36:22;88.45;;;71.20;;
59458;SDS011;45269;43.568;22.244;2024-01-11T06:38:47;171.10;;;132.57;;
59458;SDS011;45269;43.568;22.244;2024-01-11T06:41:13;184.38;;;142.73;;
59458;SDS011;45269;43.568;22.244;2024-01-11T06:43:39;161.77;;;124.30;;
59458;SDS011;45269;43.568;22.244;2024-01-11T06:46:04;186.63;;;137.13;;
59458;SDS011;45269;43.568;22.244;2024-01-11T06:48:30;178.45;;;137.38;;
59458;SDS011;45269;43.568;22.244;2024-01-11T06:50:56;196.85;;;152.55;;
59458;SDS011;45269;43.568;22.244;2024-01-11T06:53:21;184.90;;;140.80;;
59458;SDS011;45269;43.568;22.244;2024-01-11T06:55:46;175.13;;;143.68;;
59458;SDS011;45269;43.568;22.244;2024-01-11T06:58:12;191.32;;;145.07;;
59458;SDS011;45269;43.568;22.244;2024-01-11T07:00:38;140.82;;;107.22;;
59458;SDS011;45269;43.568;22.244;2024-01-11T07:05:33;190.63;;;141.10;;
59458;SDS011;45269;43.568;22.244;2024-01-11T07:07:58;242.90;;;181.25;;
59458;SDS011;45269;43.568;22.244;2024-01-11T07:10:24;264.13;;;205.20;;
59458;SDS011;45269;43.568;22.244;2024-01-11T07:12:49;258.05;;;201.85;;
59458;SDS011;45269;43.568;22.244;2024-01-11T07:15:14;163.60;;;135.10;;
59458;SDS011;45269;43.568;22.244;2024-01-11T07:17:40;138.93;;;110.32;;
59458;SDS011;45269;43.568;22.244;2024-01-11T07:20:05;111.93;;;92.15;;
59458;SDS011;45269;43.568;22.244;2024-01-11T07:22:31;140.18;;;118.60;;
59458;SDS011;45269;43.568;22.244;2024-01-11T07:24:56;234.13;;;205.20;;
59458;SDS011;45269;43.568;22.244;2024-01-11T07:27:21;180.65;;;156.82;;
59458;SDS011;45269;43.568;22.244;2024-01-11T07:29:47;102.85;;;84.50;;
59458;SDS011;45269;43.568;22.244;2024-01-11T07:32:12;599.67;;;406.25;;
59458;SDS011;45269;43.568;22.244;2024-01-11T07:34:37;629.10;;;457.42;;
59458;SDS011;45269;43.568;22.244;2024-01-11T07:37:03;247.73;;;175.65;;
59458;SDS011;45269;43.568;22.244;2024-01-11T07:39:29;183.48;;;139.88;;
59458;SDS011;45269;43.568;22.244;2024-01-11T07:41:56;192.70;;;143.80;;
59458;SDS011;45269;43.568;22.244;2024-01-11T07:44:21;142.13;;;111.97;;
59458;SDS011;45269;43.568;22.244;2024-01-11T07:46:47;144.05;;;112.47;;
59458;SDS011;45269;43.568;22.244;2024-01-11T07:49:12;153.30;;;106.22;;
59458;SDS011;45269;43.568;22.244;2024-01-11T07:51:37;406.48;;;218.75;;
59458;SDS011;45269;43.568;22.244;2024-01-11T07:54:04;413.23;;;232.07;;
59458;SDS011;45269;43.568;22.244;2024-01-11T07:56:30;290.08;;;178.50;;
59458;SDS011;45269;43.568;22.244;2024-01-11T07:58:55;176.32;;;138.65;;
59458;SDS011;45269;43.568;22.244;2024-01-11T08:01:21;116.75;;;90.88;;
59458;SDS011;45269;43.568;22.244;2024-01-11T08:03:46;85.18;;;75.82;;
59458;SDS011;45269;43.568;22.244;2024-01-11T08:06:12;126.20;;;109.30;;
59458;SDS011;45269;43.568;22.244;2024-01-11T08:08:38;54.42;;;47.78;;
59458;SDS011;45269;43.568;22.244;2024-01-11T08:11:09;59.47;;;53.17;;
59458;SDS011;45269;43.568;22.244;2024-01-11T08:13:34;91.75;;;68.22;;
59458;SDS011;45269;43.568;22.244;2024-01-11T08:16:00;65.60;;;55.78;;
59458;SDS011;45269;43.568;22.244;2024-01-11T08:18:26;68.70;;;59.92;;
59458;SDS011;45269;43.568;22.244;2024-01-11T08:20:52;262.38;;;203.50;;
59458;SDS011;45269;43.568;22.244;2024-01-11T08:23:17;223.48;;;167.18;;
59458;SDS011;45269;43.568;22.244;2024-01-11T08:25:42;138.70;;;110.53;;
59458;SDS011;45269;43.568;22.244;2024-01-11T08:28:08;139.48;;;114.40;;
59458;SDS011;45269;43.568;22.244;2024-01-11T08:30:33;166.93;;;128.55;;
59458;SDS011;45269;43.568;22.244;2024-01-11T08:32:58;169.52;;;136.18;;
59458;SDS011;45269;43.568;22.244;2024-01-11T08:35:24;125.53;;;104.60;;
59458;SDS011;45269;43.568;22.244;2024-01-11T08:37:49;110.18;;;89.70;;
59458;SDS011;45269;43.568;22.244;2024-01-11T08:40:14;150.65;;;122.55;;
59458;SDS011;45269;43.568;22.244;2024-01-11T08:42:40;70.07;;;59.67;;
59458;SDS011;45269;43.568;22.244;2024-01-11T08:45:06;46.17;;;41.20;;
59458;SDS011;45269;43.568;22.244;2024-01-11T08:47:35;55.38;;;49.33;;
59458;SDS011;45269;43.568;22.244;2024-01-11T08:50:03;46.97;;;42.05;;
59458;SDS011;45269;43.568;22.244;2024-01-11T08:52:31;45.38;;;40.25;;
59458;SDS011;45269;43.568;22.244;2024-01-11T08:54:56;42.10;;;37.50;;
59458;SDS011;45269;43.568;22.244;2024-01-11T08:57:22;40.80;;;35.13;;
59458;SDS011;45269;43.568;22.244;2024-01-11T08:59:47;38.08;;;33.97;;
59458;SDS011;45269;43.568;22.244;2024-01-11T09:02:12;68.50;;;58.03;;
59458;SDS011;45269;43.568;22.244;2024-01-11T09:04:38;44.92;;;36.55;;
59458;SDS011;45269;43.568;22.244;2024-01-11T09:07:03;36.47;;;30.58;;
59458;SDS011;45269;43.568;22.244;2024-01-11T09:09:28;66.63;;;53.15;;
59458;SDS011;45269;43.568;22.244;2024-01-11T09:11:54;39.22;;;34.95;;
59458;SDS011;45269;43.568;22.244;2024-01-11T09:14:19;32.10;;;28.70;;
59458;SDS011;45269;43.568;22.244;2024-01-11T09:16:44;29.88;;;24.30;;
59458;SDS011;45269;43.568;22.244;2024-01-11T09:19:11;25.38;;;21.20;;
59458;SDS011;45269;43.568;22.244;2024-01-11T09:21:36;51.45;;;37.20;;
59458;SDS011;45269;43.568;22.244;2024-01-11T09:24:02;41.67;;;33.13;;
59458;SDS011;45269;43.568;22.244;2024-01-11T09:26:27;106.10;;;55.60;;
59458;SDS011;45269;43.568;22.244;2024-01-11T09:28:52;113.45;;;60.65;;
59458;SDS011;45269;43.568;22.244;2024-01-11T09:31:18;120.07;;;64.57;;
59458;SDS011;45269;43.568;22.244;2024-01-11T09:33:43;174.82;;;97.95;;
59458;SDS011;45269;43.568;22.244;2024-01-11T09:36:10;81.55;;;55.13;;
59458;SDS011;45269;43.568;22.244;2024-01-11T09:38:35;56.67;;;46.30;;
59458;SDS011;45269;43.568;22.244;2024-01-11T09:41:06;45.83;;;40.85;;
59458;SDS011;45269;43.568;22.244;2024-01-11T09:43:35;37.70;;;32.30;;
59458;SDS011;45269;43.568;22.244;2024-01-11T09:46:04;41.30;;;36.75;;
59458;SDS011;45269;43.568;22.244;2024-01-11T09:48:32;36.85;;;29.38;;
59458;SDS011;45269;43.568;22.244;2024-01-11T09:50:59;40.97;;;33.17;;
59458;SDS011;45269;43.568;22.244;2024-01-11T09:53:26;49.92;;;43.40;;
59458;SDS011;45269;43.568;22.244;2024-01-11T09:55:52;25.38;;;22.52;;
59458;SDS011;45269;43.568;22.244;2024-01-11T09:58:18;180.55;;;125.65;;
59458;SDS011;45269;43.568;22.244;2024-01-11T10:00:44;42.22;;;32.40;;
59458;SDS011;45269;43.568;22.244;2024-01-11T10:03:10;38.95;;;34.80;;
59458;SDS011;45269;43.568;22.244;2024-01-11T10:05:35;37.33;;;32.03;;
59458;SDS011;45269;43.568;22.244;2024-01-11T10:08:01;57.42;;;51.22;;
59458;SDS011;45269;43.568;22.244;2024-01-11T10:10:26;115.22;;;92.88;;
59458;SDS011;45269;43.568;22.244;2024-01-11T10:12:52;55.30;;;48.60;;
59458;SDS011;45269;43.568;22.244;2024-01-11T10:15:18;37.42;;;31.08;;
59458;SDS011;45269;43.568;22.244;2024-01-11T10:17:43;42.90;;;35.92;;
59458;SDS011;45269;43.568;22.244;2024-01-11T10:20:09;38.35;;;33.47;;
59458;SDS011;45269;43.568;22.244;2024-01-11T10:22:42;37.58;;;32.58;;
59458;SDS011;45269;43.568;22.244;2024-01-11T10:25:11;33.08;;;28.65;;
59458;SDS011;45269;43.568;22.244;2024-01-11T10:27:38;29.10;;;23.33;;
59458;SDS011;45269;43.568;22.244;2024-01-11T10:30:03;26.65;;;23.65;;
59458;SDS011;45269;43.568;22.244;2024-01-11T10:32:28;34.47;;;30.75;;
59458;SDS011;45269;43.568;22.244;2024-01-11T10:34:54;35.13;;;31.38;;
59458;SDS011;45269;43.568;22.244;2024-01-11T10:37:20;31.42;;;27.58;;
59458;SDS011;45269;43.568;22.244;2024-01-11T10:39:46;33.33;;;26.70;;
59458;SDS011;45269;43.568;22.244;2024-01-11T10:42:13;26.02;;;23.20;;
59458;SDS011;45269;43.568;22.244;2024-01-11T10:44:38;24.58;;;21.92;;
59458;SDS011;45269;43.568;22.244;2024-01-11T10:47:08;27.77;;;24.88;;
59458;SDS011;45269;43.568;22.244;2024-01-11T10:49:34;30.70;;;27.40;;
59458;SDS011;45269;43.568;22.244;2024-01-11T10:52:04;28.23;;;25.23;;
59458;SDS011;45269;43.568;22.244;2024-01-11T10:54:33;50.42;;;38.00;;
59458;SDS011;45269;43.568;22.244;2024-01-11T10:56:59;45.17;;;36.60;;
59458;SDS011;45269;43.568;22.244;2024-01-11T10:59:25;26.67;;;22.08;;
59458;SDS011;45269;43.568;22.244;2024-01-11T11:01:55;32.40;;;29.02;;
59458;SDS011;45269;43.568;22.244;2024-01-11T11:04:22;27.55;;;24.27;;
59458;SDS011;45269;43.568;22.244;2024-01-11T11:06:51;29.70;;;25.00;;
59458;SDS011;45269;43.568;22.244;2024-01-11T11:09:20;24.42;;;21.75;;
59458;SDS011;45269;43.568;22.244;2024-01-11T11:11:46;29.42;;;24.77;;
59458;SDS011;45269;43.568;22.244;2024-01-11T11:14:13;41.40;;;34.15;;
59458;SDS011;45269;43.568;22.244;2024-01-11T11:16:39;29.35;;;25.60;;
59458;SDS011;45269;43.568;22.244;2024-01-11T11:19:04;23.10;;;20.55;;
59458;SDS011;45269;43.568;22.244;2024-01-11T11:21:31;21.33;;;19.15;;
59458;SDS011;45269;43.568;22.244;2024-01-11T11:23:56;25.52;;;22.92;;
59458;SDS011;45269;43.568;22.244;2024-01-11T11:26:21;22.58;;;20.25;;
59458;SDS011;45269;43.568;22.244;2024-01-11T11:28:47;40.00;;;31.02;;
59458;SDS011;45269;43.568;22.244;2024-01-11T11:31:13;24.58;;;19.58;;
59458;SDS011;45269;43.568;22.244;2024-01-11T11:33:59;39.45;;;31.38;;
59458;SDS011;45269;43.568;22.244;2024-01-11T11:38:54;73.57;;;58.17;;
59458;SDS011;45269;43.568;22.244;2024-01-11T11:41:25;54.35;;;46.33;;
59458;SDS011;45269;43.568;22.244;2024-01-11T11:43:51;38.75;;;34.55;;
59458;SDS011;45269;43.568;22.244;2024-01-11T11:46:16;39.17;;;34.92;;
59458;SDS011;45269;43.568;22.244;2024-01-11T11:48:51;32.13;;;28.63;;
59458;SDS011;45269;43.568;22.244;2024-01-11T11:51:17;29.80;;;26.80;;
59458;SDS011;45269;43.568;22.244;2024-01-11T11:53:43;25.50;;;22.70;;
59458;SDS011;45269;43.568;22.244;2024-01-11T11:56:10;21.95;;;19.58;;
59458;SDS011;45269;43.568;22.244;2024-01-11T11:58:36;23.33;;;20.90;;
59458;SDS011;45269;43.568;22.244;2024-01-11T12:01:02;19.27;;;16.85;;
59458;SDS011;45269;43.568;22.244;2024-01-11T12:03:31;23.30;;;20.83;;
59458;SDS011;45269;43.568;22.244;2024-01-11T12:05:57;25.63;;;22.75;;
59458;SDS011;45269;43.568;22.244;2024-01-11T12:08:22;25.15;;;21.95;;
59458;SDS011;45269;43.568;22.244;2024-01-11T12:10:48;22.77;;;19.95;;
59458;SDS011;45269;43.568;22.244;2024-01-11T12:13:13;27.80;;;23.42;;
59458;SDS011;45269;43.568;22.244;2024-01-11T12:15:38;27.58;;;24.70;;
59458;SDS011;45269;43.568;22.244;2024-01-11T12:18:05;24.27;;;21.73;;
59458;SDS011;45269;43.568;22.244;2024-01-11T12:20:32;25.33;;;21.23;;
59458;SDS011;45269;43.568;22.244;2024-01-11T12:22:58;21.80;;;18.90;;
59458;SDS011;45269;43.568;22.244;2024-01-11T12:25:23;30.13;;;26.13;;
59458;SDS011;45269;43.568;22.244;2024-01-11T12:27:48;37.47;;;31.70;;
59458;SDS011;45269;43.568;22.244;2024-01-11T12:30:16;29.35;;;24.80;;
59458;SDS011;45269;43.568;22.244;2024-01-11T12:32:42;25.67;;;22.95;;
59458;SDS011;45269;43.568;22.244;2024-01-11T12:35:07;23.90;;;19.65;;
59458;SDS011;45269;43.568;22.244;2024-01-11T12:37:33;31.80;;;27.90;;
59458;SDS011;45269;43.568;22.244;2024-01-11T12:39:58;30.30;;;23.70;;
59458;SDS011;45269;43.568;22.244;2024-01-11T12:42:24;24.73;;;21.98;;
59458;SDS011;45269;43.568;22.244;2024-01-11T12:44:49;26.83;;;21.98;;
59458;SDS011;45269;43.568;22.244;2024-01-11T12:47:16;25.70;;;22.92;;
59458;SDS011;45269;43.568;22.244;2024-01-11T12:49:45;26.73;;;23.90;;
59458;SDS011;45269;43.568;22.244;2024-01-11T12:52:19;29.60;;;25.40;;
59458;SDS011;45269;43.568;22.244;2024-01-11T12:54:51;45.60;;;40.85;;
59458;SDS011;45269;43.568;22.244;2024-01-11T12:57:17;29.55;;;26.40;;
59458;SDS011;45269;43.568;22.244;2024-01-11T12:59:44;52.92;;;43.22;;
59458;SDS011;45269;43.568;22.244;2024-01-11T13:02:10;60.10;;;45.45;;
59458;SDS011;45269;43.568;22.244;2024-01-11T13:04:38;50.08;;;36.08;;
59458;SDS011;45269;43.568;22.244;2024-01-11T13:07:04;50.08;;;41.55;;
59458;SDS011;45269;43.568;22.244;2024-01-11T13:09:29;38.90;;;32.92;;
59458;SDS011;45269;43.568;22.244;2024-01-11T13:11:54;28.02;;;24.60;;
59458;SDS011;45269;43.568;22.244;2024-01-11T13:14:20;36.97;;;30.10;;
59458;SDS011;45269;43.568;22.244;2024-01-11T13:16:45;32.33;;;27.17;;
59458;SDS011;45269;43.568;22.244;2024-01-11T13:19:11;29.70;;;23.90;;
59458;SDS011;45269;43.568;22.244;2024-01-11T13:21:37;30.95;;;27.50;;
59458;SDS011;45269;43.568;22.244;2024-01-11T13:24:03;34.72;;;30.13;;
59458;SDS011;45269;43.568;22.244;2024-01-11T13:26:28;38.30;;;31.60;;
59458;SDS011;45269;43.568;22.244;2024-01-11T13:28:53;41.72;;;31.40;;
59458;SDS011;45269;43.568;22.244;2024-01-11T13:31:19;58.65;;;38.08;;
59458;SDS011;45269;43.568;22.244;2024-01-11T13:33:45;38.33;;;30.33;;
59458;SDS011;45269;43.568;22.244;2024-01-11T13:36:11;36.60;;;30.58;;
59458;SDS011;45269;43.568;22.244;2024-01-11T13:38:36;34.38;;;30.55;;
59458;SDS011;45269;43.568;22.244;2024-01-11T13:41:02;32.67;;;26.85;;
59458;SDS011;45269;43.568;22.244;2024-01-11T13:43:27;42.70;;;33.10;;
59458;SDS011;45269;43.568;22.244;2024-01-11T13:45:53;32.50;;;28.10;;
59458;SDS011;45269;43.568;22.244;2024-01-11T13:48:19;40.03;;;35.20;;
59458;SDS011;45269;43.568;22.244;2024-01-11T13:50:45;33.80;;;30.10;;
59458;SDS011;45269;43.568;22.244;2024-01-11T13:53:10;30.58;;;21.58;;
59458;SDS011;45269;43.568;22.244;2024-01-11T13:55:35;27.08;;;24.30;;
59458;SDS011;45269;43.568;22.244;2024-01-11T13:58:04;25.77;;;19.63;;